Flight Track Log - Related Links

Times and Time Zones

All times are in EDT time to prevent confusion due to time zone crossing. See the SKW5510 flight status page for this flight to view local times or setup timezone preferences in your user account.

Time Position Orientation Groundspeed Altitude Reporting Facility
EDT Latitude Longitude Course Direction KTS MPH feet Rate Location/Type
Sun 04:18:06 PM 39.8667 -104.5833 90° East 197 227 7,100  Level Denver TRACON
Sun 04:19:06 PM 39.8500 -104.5000 105° East 238 274 9,200 2,083 Climbing Denver TRACON
Sun 04:20:00 PM 39.7857 -104.1734 101° East  Level FlightAware Approximate
Sun 04:20:07 PM 39.8167 -104.4089 115° Southeast 279 321 11,300  Level Denver Center
Sun 04:21:00 PM 39.7667 -104.0089 90° East  Level FlightAware Approximate
Sun 04:21:08 PM 39.8072 -104.2928 96° East 304 350 13,600  Level Denver Center
Sun 04:22:00 PM 39.7500 -103.8465 90° East  Level FlightAware Approximate
Sun 04:22:10 PM 39.7917 -104.1756 100° East 330 380 15,200  Level Denver Center
Sun 04:23:00 PM 39.7333 -103.6831 90° East  Level FlightAware Approximate
Sun 04:23:12 PM 39.7764 -104.0481 99° East 357 411 17,100  Level Denver Center
Sun 04:24:14 PM 39.7617 -103.9069 98° East 365 420 19,100 1,694 Climbing Denver Center
Sun 04:25:16 PM 39.7458 -103.7747 99° East 372 428 20,600 1,415 Climbing Denver Center
Sun 04:26:17 PM 39.7328 -103.6289 97° East 376 433 22,000 1,268 Climbing Denver Center
Sun 04:27:19 PM 39.7217 -103.4828 96° East 398 458 23,200 1,161 Climbing Denver Center
Sun 04:28:21 PM 39.7100 -103.3336 96° East 410 472 24,400 1,065 Climbing Denver Center
Sun 04:29:23 PM 39.6969 -103.1833 96° East 415 478 25,400 1,016 Climbing Denver Center
Sun 04:30:25 PM 39.6847 -103.0283 96° East 425 489 26,500 1,024 Climbing Denver Center
Sun 04:31:26 PM 39.6703 -102.8728 97° East 430 495 27,500 1,024 Climbing Denver Center
Sun 04:32:28 PM 39.6572 -102.7006 96° East 431 496 28,600 1,016 Climbing Denver Center
Sun 04:33:30 PM 39.6433 -102.5528 97° East 431 496 29,600 774 Climbing Denver Center
Sun 04:34:32 PM 39.6286 -102.3803 96° East 430 495 30,200 532 Climbing Denver Center
Sun 04:35:34 PM 39.6147 -102.2303 97° East 439 505 30,700 488 Climbing Denver Center
Sun 04:36:35 PM 39.6011 -102.0772 97° East 447 514 31,200 537 Climbing Denver Center
Sun 04:37:37 PM 39.5853 -101.8975 96° East 451 519 31,800 532 Climbing Denver Center
Sun 04:38:39 PM 39.5728 -101.7428 96° East 451 519 32,300 532 Climbing Denver Center
Sun 04:39:41 PM 39.5583 -101.5600 96° East 457 526 32,900 341 Climbing Denver Center
Sun 04:40:42 PM 39.5361 -101.4053 101° East 460 529 33,000 49 Climbing Denver Center
Sun 04:41:44 PM 39.4669 -101.2403 118° Southeast 468 539 33,000  Level Denver Center
Sun 04:42:46 PM 39.4022 -101.0997 121° Southeast 474 545 33,000  Level Denver Center
Sun 04:43:48 PM 39.3267 -100.9364 121° Southeast 475 547 33,000  Level Denver Center
Sun 04:44:49 PM 39.2617 -100.7942 121° Southeast 480 552 33,000  Level Denver Center
Sun 04:45:51 PM 39.1850 -100.6328 121° Southeast 476 548 33,000  Level Denver Center
Sun 04:46:53 PM 39.1186 -100.4903 121° Southeast 482 555 33,000  Level Denver Center
Sun 04:47:55 PM 39.0525 -100.3500 121° Southeast 480 552 33,000  Level Denver Center
Sun 04:48:57 PM 38.9756 -100.1875 121° Southeast 480 552 33,000  Level Denver Center
Sun 04:49:58 PM 38.9008 -100.0314 122° Southeast 481 554 33,000  Level Denver Center
Sun 04:51:00 PM 38.8339 -99.8928 122° Southeast 477 549 33,000  Level Denver Center
Sun 04:52:02 PM 38.7564 -99.7314 122° Southeast 476 548 33,000  Level Denver Center
Sun 04:53:04 PM 38.6897 -99.5947 122° Southeast 473 544 33,000  Level Denver Center
Sun 04:54:06 PM 38.6244 -99.4597 122° Southeast 467 537 33,000  Level Denver Center
Sun 04:54:56 PM 38.5717 -99.3519 122° Southeast 469 540 33,000  Level Kansas City Center
Sun 04:55:59 PM 38.5031 -99.2119 122° Southeast 466 536 33,000  Level Kansas City Center
Sun 04:57:00 PM 38.4206 -99.0450 122° Southeast 464 534 33,000  Level Kansas City Center
Sun 04:58:01 PM 38.3525 -98.9067 122° Southeast 462 532 33,000  Level Kansas City Center
Sun 04:59:02 PM 38.2858 -98.7675 121° Southeast 462 532 33,000  Level Kansas City Center
Sun 05:00:06 PM 38.2172 -98.6294 122° Southeast 462 532 33,000  Level Kansas City Center
Sun 05:01:08 PM 38.1472 -98.4925 123° Southeast 462 532 33,000  Level Kansas City Center
Sun 05:02:09 PM 38.0792 -98.3561 122° Southeast 460 529 33,000  Level Kansas City Center
Sun 05:03:12 PM 37.9914 -98.1989 125° Southeast 457 526 33,000  Level Kansas City Center
Sun 05:04:12 PM 37.8981 -98.0703 133° Southeast 457 526 33,000  Level Kansas City Center
Sun 05:05:17 PM 37.8111 -97.9506 133° Southeast 460 529 33,000  Level Kansas City Center
Sun 05:06:17 PM 37.7250 -97.8303 132° Southeast 460 529 33,000  Level Kansas City Center
Sun 05:07:21 PM 37.6372 -97.7108 133° Southeast 461 531 33,000  Level Kansas City Center
Sun 05:08:23 PM 37.5486 -97.5869 132° Southeast 463 533 33,000  Level Kansas City Center
Sun 05:09:24 PM 37.4617 -97.4669 132° Southeast 464 534 33,000  Level Kansas City Center
Sun 05:10:26 PM 37.3731 -97.3472 133° Southeast 467 537 33,000 -780 Level Kansas City Center
Sun 05:11:27 PM 37.2822 -97.2294 134° Southeast 470 541 31,400 -2,115 Descending Kansas City Center
Sun 05:12:28 PM 37.1919 -97.1072 133° Southeast 475 547 28,700 -2,857 Descending Kansas City Center
Sun 05:13:33 PM 37.0872 -96.9658 133° Southeast 463 533 25,400 -2,857 Descending Kansas City Center
Sun 05:14:34 PM 37.0025 -96.8536 133° Southeast 447 514 22,700 -2,557 Descending Kansas City Center
Sun 05:15:35 PM 36.9272 -96.7517 133° Southeast 423 487 20,200 -2,488 Descending Kansas City Center
Sun 05:16:37 PM 36.8503 -96.6492 133° Southeast 409 471 17,600 -2,832 Descending Kansas City Center
Sun 05:17:40 PM 36.7664 -96.5319 132° Southeast 383 441 14,300 -2,944 Descending Kansas City Center
Sun 05:18:25 PM 36.7103 -96.4600 134° Southeast 367 422 12,300 -2,656 Descending Kansas City Center
Sun 05:18:41 PM 36.6961 -96.4397 131° Southeast 373 429 11,600 -1,769 Descending Kansas City Center
Sun 05:19:43 PM 36.6314 -96.3536 133° Southeast 351 404 10,000 -1,429 Descending Kansas City Center
Sun 05:20:47 PM 36.5792 -96.2811 132° Southeast 294 338 8,600 -1,513 Descending Kansas City Center
Sun 05:21:42 PM 36.5283 -96.2094 131° Southeast 269 310 7,000 -1,817 Descending Kansas City Center
Sun 05:22:36 PM 36.4856 -96.1475 131° Southeast 256 295 5,300 -1,565 Descending Kansas City Center
Sun 05:22:51 PM 36.4831 -96.1428 123° Southeast 265 305 5,200 -1,269 Descending Kansas City Center
Sun 05:23:28 PM 36.4453 -96.0928 133° Southeast 252 290 4,200 -1,574 Descending Kansas City Center
Sun 05:23:52 PM 36.4272 -96.0650 129° Southeast 256 295 3,600 -952 Descending Kansas City Center
Sun 05:24:31 PM 36.3975 -96.0211 130° Southeast 249 287 3,200 -492 Descending Kansas City Center
Sun 05:24:53 PM 36.3825 -96.0017 134° Southeast 251 289 3,100 -393 Descending Kansas City Center
Sun 05:25:32 PM 36.3569 -95.9642 130° Southeast 217 250 2,800 -462 Descending Kansas City Center

Login

Don't have an account? Register now (free) for customized features, flight alerts, and more!